Time;durP1;ratioP1;P1;durP2;ratioP2;P2;SDS_P1;SDS_P2;PMS_P1;PMS_P2;Temp;Humidity;BMP_temperature;BMP_pressure;BME280_temperature;BME280_humidity;BME280_pressure;Samples;Min_cycle;Max_cycle;Signal;HPM_P1;HPM_P2
2021/04/07 00:02:04;;;;;;;4.35;1.23;;;4.10;96.80;;;;;;4972200;28;20034;-75
2021/04/07 00:04:29;;;;;;;10.93;1.40;;;4.10;96.30;;;;;;4989055;28;20034;-75
2021/04/07 00:06:56;;;;;;;7.28;1.50;;;4.00;96.30;;;;;;4989558;28;20302;-75
2021/04/07 00:09:24;;;;;;;3.42;1.35;;;4.00;96.40;;;;;;4994713;28;20026;-74
2021/04/07 00:11:50;;;;;;;8.70;1.52;;;4.00;96.20;;;;;;4993134;28;20038;-75
2021/04/07 00:14:15;;;;;;;7.97;1.90;;;3.90;96.40;;;;;;4993065;28;20045;-74
2021/04/07 00:16:41;;;;;;;6.93;1.40;;;3.90;96.30;;;;;;4993163;28;20050;-76
2021/04/07 00:19:08;;;;;;;6.65;1.58;;;3.80;96.40;;;;;;4992455;28;20141;-75
2021/04/07 00:21:34;;;;;;;5.53;1.35;;;3.80;96.20;;;;;;4992806;28;20035;-75
2021/04/07 00:23:59;;;;;;;6.88;1.27;;;3.90;96.20;;;;;;4994398;28;20085;-74
2021/04/07 00:26:25;;;;;;;7.70;1.77;;;4.00;96.20;;;;;;4994024;28;20607;-75
2021/04/07 00:28:51;;;;;;;6.80;1.63;;;4.10;95.90;;;;;;5007983;28;20535;-75
2021/04/07 00:31:16;;;;;;;6.80;1.25;;;4.10;96.00;;;;;;4992858;28;20436;-75
2021/04/07 00:33:42;;;;;;;3.80;1.02;;;4.20;95.80;;;;;;4992923;28;20030;-77
2021/04/07 00:36:08;;;;;;;5.45;1.33;;;4.00;96.10;;;;;;4994206;28;20072;-75
2021/04/07 00:38:34;;;;;;;8.43;1.98;;;4.00;95.90;;;;;;4992440;28;20106;-75
2021/04/07 00:41:00;;;;;;;8.75;1.48;;;4.10;95.90;;;;;;4992547;28;20039;-75
2021/04/07 00:43:26;;;;;;;6.53;1.30;;;4.20;95.60;;;;;;4992046;28;20038;-75
2021/04/07 00:45:52;;;;;;;5.55;1.33;;;4.00;95.80;;;;;;4992423;28;20061;-75
2021/04/07 00:48:18;;;;;;;7.15;1.40;;;4.00;95.80;;;;;;4993744;28;20040;-77
2021/04/07 00:50:43;;;;;;;10.00;1.58;;;3.90;95.90;;;;;;4992108;28;20171;-76
2021/04/07 00:53:09;;;;;;;9.77;1.90;;;3.80;95.90;;;;;;4992220;28;20066;-74
2021/04/07 00:55:38;;;;;;;5.72;1.73;;;3.80;95.90;;;;;;4992234;28;20116;-75
2021/04/07 00:58:04;;;;;;;4.95;1.40;;;3.90;95.80;;;;;;4992272;28;20357;-74
2021/04/07 01:00:30;;;;;;;8.93;1.85;;;3.90;95.90;;;;;;4994185;28;20054;-74
2021/04/07 01:02:58;;;;;;;10.18;1.85;;;3.90;95.80;;;;;;4992220;28;20061;-74
2021/04/07 01:05:25;;;;;;;;;;;3.90;95.70;;;;;;4992412;28;20315;-75
2021/04/07 01:07:51;;;;;;;8.20;1.30;;;3.90;95.70;;;;;;4992206;28;19918;-75
2021/04/07 01:10:16;;;;;;;11.38;2.22;;;3.90;95.70;;;;;;4992290;28;20039;-75
2021/04/07 01:12:43;;;;;;;6.25;2.03;;;3.90;95.60;;;;;;4990884;28;20463;-74
2021/04/07 01:15:11;;;;;;;7.68;1.83;;;3.90;95.60;;;;;;4993511;28;20026;-75
2021/04/07 01:17:37;;;;;;;6.93;1.88;;;3.90;95.50;;;;;;4991985;28;20058;-74
2021/04/07 01:20:06;;;;;;;18.23;2.38;;;3.80;95.70;;;;;;4990988;28;20058;-74
2021/04/07 01:22:32;;;;;;;9.07;1.83;;;3.80;95.70;;;;;;4991832;28;20034;-75
2021/04/07 01:24:59;;;;;;;11.48;2.03;;;3.80;95.50;;;;;;4991720;28;20088;-75
2021/04/07 01:27:25;;;;;;;9.40;1.52;;;3.70;95.40;;;;;;5008349;28;20639;-75
2021/04/07 01:29:50;;;;;;;13.25;2.25;;;3.70;95.40;;;;;;5006865;28;20039;-74
2021/04/07 01:32:16;;;;;;;12.45;2.17;;;3.70;95.50;;;;;;4991512;28;20038;-75
2021/04/07 01:34:43;;;;;;;11.18;1.77;;;3.70;95.70;;;;;;4991575;28;20105;-75
2021/04/07 01:37:12;;;;;;;15.35;2.10;;;3.70;95.80;;;;;;5010215;28;20479;-75
2021/04/07 01:39:37;;;;;;;12.35;1.52;;;3.70;95.70;;;;;;5010813;28;20026;-75
2021/04/07 01:42:04;;;;;;;3.65;1.48;;;3.60;95.80;;;;;;5012564;28;20025;-74
2021/04/07 01:44:31;;;;;;;12.18;1.65;;;3.70;95.80;;;;;;5010870;28;20045;-74
2021/04/07 01:46:57;;;;;;;9.38;1.65;;;3.70;95.60;;;;;;5009486;28;20037;-74
2021/04/07 01:49:24;;;;;;;14.32;2.17;;;3.70;95.60;;;;;;5011044;28;20047;-74
2021/04/07 01:51:49;;;;;;;10.35;1.60;;;3.80;95.40;;;;;;5010657;28;20026;-74
2021/04/07 01:54:15;;;;;;;11.95;1.65;;;3.80;95.50;;;;;;5010967;28;20018;-73
2021/04/07 01:56:57;;;;;;;12.43;1.92;;;3.70;95.60;;;;;;5010576;28;20058;-74
2021/04/07 01:59:28;;;;;;;11.88;1.75;;;3.60;95.50;;;;;;5009476;28;20042;-73
2021/04/07 02:01:55;;;;;;;8.45;1.60;;;3.60;95.50;;;;;;5010094;28;20328;-75
2021/04/07 02:04:21;;;;;;;7.38;1.58;;;3.60;95.60;;;;;;5010752;28;20044;-74
2021/04/07 02:06:48;;;;;;;13.18;1.50;;;3.50;95.70;;;;;;5009049;28;20045;-74
2021/04/07 02:09:14;;;;;;;9.32;1.67;;;3.50;95.70;;;;;;5011895;28;20045;-74
2021/04/07 02:11:51;;;;;;;11.00;2.03;;;3.50;95.60;;;;;;5011020;28;20046;-75
2021/04/07 02:14:23;;;;;;;13.63;2.00;;;3.40;95.80;;;;;;5010460;28;20030;-76
2021/04/07 02:17:00;;;;;;;10.23;2.17;;;3.40;95.90;;;;;;5010364;28;20519;-75
2021/04/07 02:19:27;;;;;;;15.00;1.90;;;3.40;95.80;;;;;;5009096;28;20068;-75
2021/04/07 02:22:14;;;;;;;8.95;2.00;;;3.50;95.70;;;;;;5010350;28;20033;-74
2021/04/07 02:24:42;;;;;;;12.75;1.92;;;3.50;95.70;;;;;;5010336;28;20030;-73
2021/04/07 02:27:16;;;;;;;12.52;1.88;;;3.50;95.60;;;;;;5011706;28;20022;-74
2021/04/07 02:29:44;;;;;;;14.57;2.13;;;3.50;95.60;;;;;;5010154;28;20053;-74
2021/04/07 02:32:09;;;;;;;13.57;1.38;;;3.40;95.70;;;;;;5007766;28;20037;-74
2021/04/07 02:34:36;;;;;;;6.38;1.70;;;3.40;95.70;;;;;;5008571;28;20034;-76
2021/04/07 02:37:02;;;;;;;11.23;2.10;;;3.40;95.60;;;;;;5010756;28;20504;-75
2021/04/07 02:39:28;;;;;;;8.43;1.92;;;3.40;95.60;;;;;;5011377;28;20073;-75
2021/04/07 02:41:54;;;;;;;10.25;2.70;;;3.50;95.50;;;;;;5009784;28;20442;-74
2021/04/07 02:44:20;;;;;;;10.25;2.67;;;3.40;95.70;;;;;;5008592;28;20057;-75
2021/04/07 02:46:46;;;;;;;11.60;2.75;;;3.30;95.90;;;;;;5008845;28;20523;-74
2021/04/07 02:49:12;;;;;;;21.90;2.45;;;3.30;95.90;;;;;;5008850;28;20578;-74
2021/04/07 02:51:37;;;;;;;11.75;3.40;;;3.30;95.90;;;;;;5009711;28;20032;-75
2021/04/07 02:54:03;;;;;;;12.30;2.25;;;3.20;95.90;;;;;;5011278;28;20452;-74
2021/04/07 02:56:30;;;;;;;12.23;2.55;;;3.40;95.70;;;;;;5009838;28;20124;-75
2021/04/07 02:58:56;;;;;;;10.93;2.67;;;3.30;95.70;;;;;;5009563;28;20038;-75
2021/04/07 03:01:22;;;;;;;12.85;2.22;;;3.40;95.60;;;;;;5009526;28;20486;-74
2021/04/07 03:03:47;;;;;;;10.48;2.30;;;3.30;95.70;;;;;;5009673;28;20033;-74
2021/04/07 03:06:13;;;;;;;10.18;2.42;;;3.30;95.80;;;;;;5011138;28;20076;-75
2021/04/07 03:08:39;;;;;;;7.18;2.33;;;3.30;95.70;;;;;;5009543;28;20056;-74
2021/04/07 03:11:04;;;;;;;14.30;2.83;;;3.30;95.60;;;;;;5009342;28;20038;-75
2021/04/07 03:13:30;;;;;;;13.73;2.80;;;3.20;95.70;;;;;;5008274;28;20129;-74
2021/04/07 03:15:55;;;;;;;9.65;2.70;;;3.30;95.70;;;;;;5009519;28;20092;-74
2021/04/07 03:18:21;;;;;;;13.27;2.75;;;3.10;95.60;;;;;;5010998;28;20080;-74
2021/04/07 03:20:47;;;;;;;9.90;2.88;;;3.10;95.90;;;;;;5009249;28;20050;-75
2021/04/07 03:23:13;;;;;;;14.18;2.28;;;3.10;95.80;;;;;;5008349;28;20064;-75
2021/04/07 03:25:38;;;;;;;11.40;3.03;;;3.10;95.70;;;;;;5009782;28;20026;-76
2021/04/07 03:28:04;;;;;;;12.13;2.50;;;3.10;95.70;;;;;;5009368;28;20036;-76
2021/04/07 03:30:48;;;;;;;17.90;3.10;;;3.10;95.60;;;;;;5010902;28;20483;-76
2021/04/07 03:33:20;;;;;;;16.73;2.33;;;3.10;95.60;;;;;;5009827;28;20050;-76
2021/04/07 03:35:47;;;;;;;12.20;2.42;;;3.10;95.60;;;;;;5009062;28;20034;-75
2021/04/07 03:38:13;;;;;;;9.35;2.45;;;3.10;95.60;;;;;;5009024;28;20057;-74
2021/04/07 03:40:39;;;;;;;10.50;2.25;;;3.00;95.60;;;;;;5009421;28;20034;-74
2021/04/07 03:43:10;;;;;;;11.60;2.58;;;3.10;95.50;;;;;;5011299;28;20479;-75
2021/04/07 03:45:35;;;;;;;9.07;2.65;;;3.00;95.60;;;;;;5013098;28;20353;-75
2021/04/07 03:48:01;;;;;;;13.40;3.10;;;3.10;95.60;;;;;;5014806;28;20085;-76
2021/04/07 03:50:27;;;;;;;14.57;2.70;;;3.20;95.40;;;;;;5011903;28;20067;-75
2021/04/07 03:52:53;;;;;;;7.13;2.40;;;3.10;95.40;;;;;;5012972;28;20099;-75
2021/04/07 03:55:19;;;;;;;14.80;2.70;;;3.00;95.60;;;;;;5013128;28;20056;-74
2021/04/07 03:57:44;;;;;;;19.55;3.05;;;3.00;95.40;;;;;;5013407;28;20101;-74
2021/04/07 04:00:10;;;;;;;15.48;2.85;;;3.00;95.40;;;;;;5014577;28;20101;-74
2021/04/07 04:02:36;;;;;;;19.38;3.08;;;3.00;95.40;;;;;;5013353;28;20048;-75
2021/04/07 04:05:03;;;;;;;21.23;2.53;;;3.00;95.40;;;;;;5013115;28;20034;-75
2021/04/07 04:07:28;;;;;;;10.98;3.58;;;3.00;95.40;;;;;;5012709;28;20034;-75
2021/04/07 04:09:54;;;;;;;10.60;2.50;;;3.00;95.30;;;;;;5012676;28;20056;-73
2021/04/07 04:12:20;;;;;;;20.45;3.45;;;2.90;95.40;;;;;;5014110;28;20030;-74
2021/04/07 04:14:45;;;;;;;21.13;6.18;;;3.00;95.40;;;;;;5012625;28;20038;-75
2021/04/07 04:17:11;;;;;;;14.60;2.80;;;2.90;95.50;;;;;;5012633;28;20034;-75
2021/04/07 04:19:37;;;;;;;10.15;2.83;;;3.00;95.40;;;;;;5012274;28;20049;-73
2021/04/07 04:22:04;;;;;;;11.63;2.63;;;3.00;95.40;;;;;;5027935;28;20157;-74
2021/04/07 04:24:30;;;;;;;14.17;3.27;;;3.00;95.40;;;;;;5013972;28;20014;-74
2021/04/07 04:26:55;;;;;;;11.82;2.33;;;2.80;95.60;;;;;;5012386;28;20042;-74
2021/04/07 04:29:21;;;;;;;13.48;2.63;;;3.00;95.60;;;;;;5012629;28;20030;-74
2021/04/07 04:31:47;;;;;;;18.80;2.65;;;2.90;95.60;;;;;;5012059;28;20103;-75
2021/04/07 04:34:12;;;;;;;18.42;3.13;;;3.10;95.50;;;;;;5012198;28;20029;-75
2021/04/07 04:36:38;;;;;;;16.85;2.97;;;3.00;95.40;;;;;;5011267;28;20384;-76
2021/04/07 04:39:04;;;;;;;12.00;3.15;;;3.10;95.40;;;;;;5013684;28;20018;-75
2021/04/07 04:41:29;;;;;;;13.65;2.58;;;3.10;95.50;;;;;;5011978;28;20058;-75
2021/04/07 04:43:55;;;;;;;17.35;3.08;;;3.00;95.40;;;;;;5012157;28;20044;-74
2021/04/07 04:46:21;;;;;;;16.30;3.25;;;3.00;95.40;;;;;;5011791;28;20121;-75
2021/04/07 04:48:46;;;;;;;15.02;2.63;;;3.10;95.30;;;;;;5011784;28;20056;-74
2021/04/07 04:51:12;;;;;;;16.88;3.05;;;3.00;95.40;;;;;;5013797;28;20464;-75
2021/04/07 04:53:37;;;;;;;11.52;2.35;;;3.10;95.30;;;;;;5010971;28;20480;-76
2021/04/07 04:56:03;;;;;;;18.55;3.20;;;3.00;95.40;;;;;;5011577;28;20034;-75
2021/04/07 04:58:31;;;;;;;17.65;2.92;;;3.00;95.30;;;;;;5010587;28;20084;-75
2021/04/07 05:00:57;;;;;;;17.30;2.88;;;3.00;95.30;;;;;;5010861;28;20077;-76
2021/04/07 05:03:23;;;;;;;11.98;2.88;;;3.00;95.60;;;;;;5013228;28;20045;-74
2021/04/07 05:05:48;;;;;;;14.88;2.55;;;3.10;95.40;;;;;;5011715;28;20036;-75
2021/04/07 05:08:14;;;;;;;14.27;3.08;;;3.20;95.30;;;;;;5011407;28;20410;-74
2021/04/07 05:10:40;;;;;;;13.68;2.55;;;3.30;95.10;;;;;;5011758;28;20073;-74
2021/04/07 05:13:05;;;;;;;25.42;4.20;;;3.30;95.20;;;;;;5011429;28;20125;-74
2021/04/07 05:15:31;;;;;;;17.25;2.88;;;3.30;95.10;;;;;;5012804;28;20092;-72
2021/04/07 05:17:56;;;;;;;10.82;2.75;;;3.40;95.10;;;;;;5011525;28;20042;-76
2021/04/07 05:20:22;;;;;;;16.13;3.20;;;3.40;95.00;;;;;;5010778;28;20058;-74
2021/04/07 05:22:48;;;;;;;18.10;3.30;;;3.40;94.90;;;;;;5010224;28;20049;-72
2021/04/07 05:25:13;;;;;;;12.75;2.65;;;3.40;94.90;;;;;;5011185;28;20480;-71
2021/04/07 05:27:39;;;;;;;13.95;3.28;;;3.40;94.90;;;;;;5010483;28;20030;-72
2021/04/07 05:30:06;;;;;;;18.67;2.78;;;3.50;95.10;;;;;;5012544;28;20032;-72
2021/04/07 05:32:32;;;;;;;14.82;2.63;;;3.60;94.60;;;;;;5011022;28;20080;-72
2021/04/07 05:34:58;;;;;;;15.48;3.42;;;3.70;94.60;;;;;;5010882;28;20061;-70
2021/04/07 05:37:23;;;;;;;19.65;3.70;;;3.70;94.90;;;;;;5010889;28;20049;-69
2021/04/07 05:39:49;;;;;;;12.23;2.80;;;3.70;94.70;;;;;;5010844;28;20509;-70
2021/04/07 05:42:15;;;;;;;11.82;2.92;;;3.60;94.60;;;;;;5012424;28;20101;-70
2021/04/07 05:44:40;;;;;;;10.90;3.33;;;3.70;94.60;;;;;;5010956;28;20437;-73
2021/04/07 05:47:06;;;;;;;12.52;3.35;;;3.70;94.70;;;;;;5010927;28;20491;-74
2021/04/07 05:49:31;;;;;;;11.95;3.00;;;3.80;94.60;;;;;;5010985;28;20034;-73
2021/04/07 05:51:57;;;;;;;14.43;3.67;;;3.90;94.50;;;;;;5010003;28;20037;-72
2021/04/07 05:54:23;;;;;;;16.83;3.30;;;3.80;94.40;;;;;;5012171;28;20033;-72
2021/04/07 05:56:48;;;;;;;15.20;3.33;;;3.90;94.30;;;;;;5009385;28;20575;-73
2021/04/07 05:59:14;;;;;;;18.40;3.20;;;3.90;94.20;;;;;;5010474;28;20455;-74
2021/04/07 06:01:39;;;;;;;16.60;4.15;;;4.00;94.80;;;;;;5010335;28;20429;-72
2021/04/07 06:04:05;;;;;;;10.32;3.40;;;4.00;94.50;;;;;;5010783;28;20026;-73
2021/04/07 06:06:31;;;;;;;9.95;4.10;;;4.00;94.60;;;;;;5011634;28;20037;-75
2021/04/07 06:08:56;;;;;;;8.40;3.30;;;4.10;94.50;;;;;;5010819;28;20026;-74
2021/04/07 06:11:22;;;;;;;10.40;3.10;;;4.20;94.40;;;;;;5009439;28;20041;-73
2021/04/07 06:13:48;;;;;;;22.70;3.83;;;4.20;94.30;;;;;;5010166;28;20478;-72
2021/04/07 06:16:14;;;;;;;15.10;3.13;;;4.30;94.20;;;;;;5010203;28;20041;-72
2021/04/07 06:18:41;;;;;;;16.85;2.55;;;4.30;93.90;;;;;;5010443;28;20044;-72
2021/04/07 06:21:07;;;;;;;19.77;4.00;;;4.60;93.80;;;;;;5011746;28;20340;-73
2021/04/07 06:23:32;;;;;;;11.02;2.88;;;4.40;93.60;;;;;;5010367;28;20042;-74
2021/04/07 06:25:58;;;;;;;6.55;2.60;;;4.40;93.70;;;;;;5008833;28;20052;-73
2021/04/07 06:28:24;;;;;;;29.42;3.22;;;4.40;93.50;;;;;;5009893;28;20466;-73
2021/04/07 06:30:50;;;;;;;15.40;3.20;;;4.50;93.70;;;;;;5010273;28;20022;-73
2021/04/07 06:33:19;;;;;;;18.08;2.88;;;4.60;93.60;;;;;;5010335;28;20384;-74
2021/04/07 06:35:48;;;;;;;14.23;2.42;;;4.60;93.20;;;;;;5009938;28;20117;-76
2021/04/07 06:38:15;;;;;;;17.58;2.33;;;4.50;93.40;;;;;;5009610;28;20026;-74
2021/04/07 06:40:42;;;;;;;9.98;2.33;;;4.50;93.50;;;;;;5009291;28;20490;-74
2021/04/07 06:43:08;;;;;;;7.22;1.73;;;4.60;93.50;;;;;;5008613;28;20076;-73
2021/04/07 06:45:38;;;;;;;16.45;2.17;;;4.80;93.30;;;;;;5009451;28;20049;-74
2021/04/07 06:48:08;;;;;;;11.10;2.78;;;4.80;93.10;;;;;;5009973;28;20075;-72
2021/04/07 06:50:34;;;;;;;10.27;2.05;;;4.80;92.90;;;;;;5009491;28;20045;-73
2021/04/07 06:53:03;;;;;;;13.20;2.45;;;4.80;92.60;;;;;;5009257;28;20087;-73
2021/04/07 06:55:29;;;;;;;12.77;1.73;;;4.70;92.60;;;;;;5008308;28;20108;-73
2021/04/07 06:57:56;;;;;;;15.38;2.08;;;4.70;92.60;;;;;;5008252;28;20531;-72
2021/04/07 07:00:26;;;;;;;10.25;1.88;;;4.70;92.80;;;;;;5010905;28;20026;-73
2021/04/07 07:03:13;;;;;;;11.23;2.10;;;4.80;92.60;;;;;;5009503;28;20110;-73
2021/04/07 07:05:48;;;;;;;10.93;1.90;;;4.70;92.40;;;;;;5009327;28;20126;-73
2021/04/07 07:08:16;;;;;;;9.25;2.03;;;4.70;92.50;;;;;;5009172;28;20073;-72
2021/04/07 07:10:52;;;;;;;11.60;2.20;;;4.70;92.60;;;;;;5008425;28;20053;-73
2021/04/07 07:13:25;;;;;;;11.35;2.08;;;4.80;92.70;;;;;;5005845;28;20038;-71
2021/04/07 07:15:53;;;;;;;5.60;1.75;;;4.90;92.60;;;;;;4970374;28;21145;-73
2021/04/07 07:18:28;;;;;;;10.45;1.73;;;4.90;92.40;;;;;;4971238;28;20026;-71
2021/04/07 07:20:55;;;;;;;9.00;2.25;;;4.90;92.40;;;;;;4985427;28;20050;-71
2021/04/07 07:23:24;;;;;;;7.50;2.25;;;5.00;92.50;;;;;;4970292;28;20038;-73
2021/04/07 07:26:05;;;;;;;9.60;2.10;;;5.00;92.30;;;;;;4970410;28;20464;-71
2021/04/07 07:28:40;;;;;;;9.18;1.83;;;4.90;92.10;;;;;;4970371;28;20161;-71
2021/04/07 07:31:24;;;;;;;8.15;2.10;;;4.90;92.20;;;;;;4969839;28;20109;-73
2021/04/07 07:33:51;;;;;;;15.73;2.20;;;4.80;92.30;;;;;;4969947;28;20027;-72
2021/04/07 07:36:17;;;;;;;7.28;1.50;;;4.90;92.40;;;;;;4971654;28;20015;-71
2021/04/07 07:38:55;;;;;;;13.70;2.33;;;4.80;92.50;;;;;;4970221;28;20027;-75
2021/04/07 07:41:26;;;;;;;6.50;1.80;;;4.90;92.50;;;;;;4969906;28;20060;-75
2021/04/07 07:43:53;;;;;;;31.65;2.83;;;4.80;92.70;;;;;;4970287;28;20054;-72
2021/04/07 07:46:22;;;;;;;8.93;1.73;;;5.10;92.70;;;;;;4985743;28;20051;-73
2021/04/07 07:48:48;;;;;;;9.85;2.00;;;5.10;92.50;;;;;;4969372;28;20070;-73
2021/04/07 07:51:23;;;;;;;7.10;2.00;;;5.10;92.40;;;;;;4986773;28;20023;-73
2021/04/07 07:53:51;;;;;;;6.82;1.73;;;5.00;92.60;;;;;;4969956;28;20045;-73
2021/04/07 07:56:18;;;;;;;5.60;1.90;;;5.20;92.60;;;;;;4984928;28;20480;-74
2021/04/07 07:58:46;;;;;;;7.55;1.95;;;5.30;92.70;;;;;;4970482;28;20461;-72
2021/04/07 08:01:14;;;;;;;19.92;2.30;;;5.30;92.50;;;;;;4970001;28;20118;-74
2021/04/07 08:03:41;;;;;;;13.32;2.42;;;5.50;92.60;;;;;;4984981;28;20361;-74
2021/04/07 08:06:06;;;;;;;11.43;3.53;;;5.70;92.40;;;;;;4970091;28;20121;-72
2021/04/07 08:08:32;;;;;;;5.07;2.00;;;5.60;92.30;;;;;;4969910;28;20496;-73
2021/04/07 08:10:58;;;;;;;7.95;2.00;;;5.30;92.40;;;;;;4969252;28;20489;-73
2021/04/07 08:13:31;;;;;;;17.70;2.55;;;5.50;92.50;;;;;;4969890;28;20119;-74
2021/04/07 08:15:58;;;;;;;9.63;2.13;;;5.60;92.20;;;;;;4969025;28;20508;-73
2021/04/07 08:18:25;;;;;;;6.38;1.83;;;5.60;92.10;;;;;;4987489;28;20465;-73
2021/04/07 08:20:51;;;;;;;7.03;1.60;;;5.70;92.00;;;;;;4984236;28;20047;-73
2021/04/07 08:23:20;;;;;;;7.13;2.03;;;5.80;92.00;;;;;;4985141;28;20275;-72
2021/04/07 08:25:52;;;;;;;7.65;2.20;;;6.00;91.50;;;;;;4985096;28;20531;-74
2021/04/07 08:28:18;;;;;;;5.32;1.63;;;6.00;91.30;;;;;;4969654;28;20043;-74
2021/04/07 08:30:44;;;;;;;8.30;1.80;;;6.10;91.20;;;;;;4972373;28;20019;-73
2021/04/07 08:33:10;;;;;;;12.70;2.33;;;6.20;91.20;;;;;;4974900;28;20350;-72
2021/04/07 08:35:36;;;;;;;8.18;2.13;;;6.30;91.30;;;;;;4972978;28;20027;-74
2021/04/07 08:38:04;;;;;;;5.50;1.75;;;6.00;91.40;;;;;;4972977;28;20031;-74
2021/04/07 08:40:42;;;;;;;14.32;3.05;;;6.10;91.70;;;;;;4987323;28;20027;-72
2021/04/07 08:43:11;;;;;;;6.55;2.03;;;6.10;91.60;;;;;;4972938;28;20062;-73
2021/04/07 08:45:45;;;;;;;8.35;1.80;;;6.20;91.90;;;;;;4972850;28;20023;-72
2021/04/07 08:48:19;;;;;;;12.70;1.70;;;6.60;91.40;;;;;;4989563;28;20122;-72
2021/04/07 08:50:50;;;;;;;11.30;1.85;;;7.10;91.00;;;;;;4972643;28;20636;-74
2021/04/07 08:53:18;;;;;;;6.32;1.80;;;7.30;90.40;;;;;;4972673;28;20050;-73
2021/04/07 08:55:54;;;;;;;5.35;1.73;;;7.20;89.80;;;;;;4987753;28;20070;-74
2021/04/07 08:58:25;;;;;;;4.10;1.73;;;7.30;90.50;;;;;;4987626;28;20038;-74
2021/04/07 09:00:54;;;;;;;10.38;1.65;;;7.20;90.50;;;;;;4972447;28;28215;-74
2021/04/07 09:03:30;;;;;;;8.55;2.17;;;7.30;90.40;;;;;;4973979;28;20034;-72
2021/04/07 09:05:56;;;;;;;9.07;2.10;;;7.20;90.60;;;;;;4972444;28;20074;-74
2021/04/07 09:08:25;;;;;;;3.42;1.63;;;7.40;90.40;;;;;;4987639;28;20065;-73
2021/04/07 09:10:52;;;;;;;7.18;2.42;;;7.20;90.60;;;;;;4987935;28;20471;-73
2021/04/07 09:13:22;;;;;;;10.23;2.92;;;7.30;90.60;;;;;;4972525;28;20058;-72
2021/04/07 09:16:03;;;;;;;6.00;2.75;;;6.90;90.50;;;;;;4972337;28;20055;-72
2021/04/07 09:18:43;;;;;;;9.68;3.15;;;6.80;90.50;;;;;;4973569;28;20034;-72
2021/04/07 09:21:30;;;;;;;7.15;2.95;;;6.50;90.90;;;;;;4972163;28;20046;-71
2021/04/07 09:23:58;;;;;;;11.93;4.43;;;6.50;91.10;;;;;;4972045;28;20035;-73
2021/04/07 09:26:29;;;;;;;5.60;3.35;;;6.50;91.20;;;;;;4987261;28;20081;-73
2021/04/07 09:28:56;;;;;;;7.38;3.03;;;6.50;91.00;;;;;;4972155;28;20037;-73
2021/04/07 09:31:35;;;;;;;7.22;3.20;;;6.60;91.00;;;;;;4971798;28;20122;-72
2021/04/07 09:34:02;;;;;;;7.30;3.60;;;6.50;91.10;;;;;;4971870;28;20130;-73
2021/04/07 09:36:35;;;;;;;9.73;3.63;;;6.50;90.90;;;;;;4988469;28;20098;-72
2021/04/07 09:39:05;;;;;;;8.23;3.80;;;6.50;91.00;;;;;;4972107;28;20042;-72
2021/04/07 09:41:34;;;;;;;5.30;3.55;;;6.50;91.00;;;;;;4971435;28;20315;-73
2021/04/07 09:44:00;;;;;;;5.45;3.90;;;6.50;91.10;;;;;;4986820;28;20039;-73
2021/04/07 09:46:27;;;;;;;10.07;4.78;;;6.30;91.10;;;;;;4987094;28;20186;-72
2021/04/07 09:48:57;;;;;;;7.57;4.70;;;6.40;91.30;;;;;;4986666;28;20495;-71
2021/04/07 09:51:27;;;;;;;5.57;3.88;;;6.40;91.40;;;;;;4973117;28;20377;-71
2021/04/07 09:54:06;;;;;;;8.23;4.82;;;6.50;91.30;;;;;;4971327;28;20050;-73
2021/04/07 09:56:32;;;;;;;8.13;4.55;;;6.50;91.20;;;;;;4971646;28;20070;-72
2021/04/07 09:58:58;;;;;;;7.47;5.25;;;6.30;91.20;;;;;;4986840;28;20280;-72
2021/04/07 10:01:25;;;;;;;9.10;5.50;;;6.40;91.30;;;;;;4971622;28;20207;-78
2021/04/07 10:03:53;;;;;;;9.43;5.88;;;6.40;91.30;;;;;;4971198;28;20023;-74
2021/04/07 10:06:23;;;;;;;11.07;6.10;;;6.40;91.30;;;;;;4973048;28;20070;-72
2021/04/07 10:09:05;;;;;;;8.98;5.47;;;6.50;91.30;;;;;;4971380;28;20097;-72
2021/04/07 10:11:34;;;;;;;8.30;6.05;;;6.30;91.40;;;;;;4986293;28;20142;-71
2021/04/07 10:14:01;;;;;;;13.13;6.30;;;6.30;91.40;;;;;;4986565;28;20369;-70
2021/04/07 10:16:40;;;;;;;11.50;6.35;;;6.30;91.50;;;;;;4970907;28;20050;-72
2021/04/07 10:19:08;;;;;;;9.27;6.30;;;6.50;91.40;;;;;;4986190;28;20039;-72
2021/04/07 10:21:35;;;;;;;13.70;7.70;;;6.50;91.20;;;;;;4970886;28;20034;-73
2021/04/07 10:24:01;;;;;;;11.55;7.70;;;6.50;91.20;;;;;;4972913;28;20338;-74
2021/04/07 10:26:27;;;;;;;9.85;6.72;;;6.50;91.00;;;;;;4985948;28;20042;-73
2021/04/07 10:28:58;;;;;;;13.80;7.20;;;6.60;91.00;;;;;;4970780;28;20121;-74
2021/04/07 10:31:24;;;;;;;11.98;7.18;;;6.60;91.00;;;;;;4970400;28;20114;-73
2021/04/07 10:34:07;;;;;;;13.50;7.90;;;6.70;90.90;;;;;;4970726;28;20042;-73
2021/04/07 10:36:36;;;;;;;12.80;7.35;;;6.70;90.80;;;;;;4970603;28;20368;-74
2021/04/07 10:39:12;;;;;;;12.50;8.13;;;6.70;90.70;;;;;;4972620;28;20062;-74
2021/04/07 10:41:39;;;;;;;15.23;6.78;;;6.80;90.80;;;;;;4970719;28;20057;-74
2021/04/07 10:44:06;;;;;;;9.10;6.43;;;6.80;90.90;;;;;;4985587;28;20031;-75
2021/04/07 10:46:31;;;;;;;10.20;6.37;;;6.80;90.60;;;;;;4970636;28;20109;-75
2021/04/07 10:48:58;;;;;;;8.88;5.53;;;6.80;90.90;;;;;;4985971;28;20449;-74
2021/04/07 10:51:26;;;;;;;10.05;5.63;;;7.00;90.70;;;;;;4971340;28;20365;-73
2021/04/07 10:53:57;;;;;;;8.07;5.05;;;7.30;90.50;;;;;;4985459;28;20053;-72
2021/04/07 10:56:24;;;;;;;6.75;5.60;;;7.40;90.30;;;;;;4970446;28;20043;-73
2021/04/07 10:58:59;;;;;;;10.40;6.18;;;7.80;90.00;;;;;;4985291;28;20648;-71
2021/04/07 11:01:35;;;;;;;9.38;5.57;;;8.30;90.10;;;;;;4985612;28;20046;-74
2021/04/07 11:04:19;;;;;;;6.35;4.70;;;8.90;87.30;;;;;;4970009;28;20049;-72
2021/04/07 11:06:50;;;;;;;8.30;5.13;;;9.10;85.30;;;;;;4985639;28;20038;-75
2021/04/07 11:09:15;;;;;;;6.80;4.15;;;9.40;84.30;;;;;;4970938;28;20027;-75
2021/04/07 11:11:43;;;;;;;5.15;3.47;;;9.40;83.10;;;;;;4969998;28;20041;-75
2021/04/07 11:14:10;;;;;;;8.43;4.03;;;8.90;82.40;;;;;;4970109;28;20034;-74
2021/04/07 11:16:36;;;;;;;10.80;4.30;;;8.70;83.70;;;;;;4970311;28;20046;-76
2021/04/07 11:19:16;;;;;;;8.98;4.38;;;8.60;84.30;;;;;;4969890;28;20035;-76
2021/04/07 11:21:43;;;;;;;7.97;3.90;;;8.40;84.40;;;;;;4970224;28;20026;-74
2021/04/07 11:24:09;;;;;;;5.00;3.70;;;8.40;85.10;;;;;;4971940;28;20030;-73
2021/04/07 11:26:34;;;;;;;8.35;3.63;;;8.30;85.40;;;;;;4970404;28;20046;-75
2021/04/07 11:29:00;;;;;;;5.80;5.00;;;8.10;86.20;;;;;;4970496;28;20050;-74
2021/04/07 11:31:29;;;;;;;8.70;4.53;;;8.00;86.40;;;;;;4970247;28;20069;-75
2021/04/07 11:34:02;;;;;;;7.32;4.63;;;8.10;86.70;;;;;;4969684;28;20081;-75
2021/04/07 11:46:34;;;;;;;7.25;4.45;;;8.10;87.80;;;;;;4970213;28;20035;-77
2021/04/07 11:48:59;;;;;;;4.95;3.92;;;8.10;88.30;;;;;;4969977;28;20031;-75
2021/04/07 11:51:25;;;;;;;7.85;3.85;;;8.30;88.00;;;;;;4971460;28;20037;-75
2021/04/07 11:53:51;;;;;;;6.43;4.43;;;8.30;88.10;;;;;;4969904;28;20105;-75
2021/04/07 11:56:18;;;;;;;10.63;5.43;;;8.30;87.70;;;;;;4970224;28;20050;-76
2021/04/07 11:58:44;;;;;;;7.50;3.38;;;8.40;87.70;;;;;;4969656;28;20118;-77
2021/04/07 12:01:10;;;;;;;7.35;3.03;;;8.40;87.50;;;;;;4984954;28;20057;-75
2021/04/07 12:03:37;;;;;;;10.10;3.53;;;8.40;87.30;;;;;;4970692;28;20230;-76
2021/04/07 12:06:03;;;;;;;7.50;2.88;;;8.30;87.60;;;;;;4990473;28;20118;-74
2021/04/07 12:08:29;;;;;;;7.25;3.20;;;8.20;88.60;;;;;;4989158;28;20038;-74
2021/04/07 12:10:59;;;;;;;3.13;2.40;;;8.20;89.60;;;;;;4988481;28;20046;-74
2021/04/07 12:13:25;;;;;;;3.55;2.63;;;8.20;89.80;;;;;;4973674;28;20046;-72
2021/04/07 12:15:51;;;;;;;5.00;2.40;;;8.30;89.50;;;;;;4973614;28;20437;-73
2021/04/07 12:18:17;;;;;;;6.25;2.50;;;8.40;89.20;;;;;;4975051;28;20445;-76
2021/04/07 12:20:42;;;;;;;4.93;2.15;;;8.50;90.00;;;;;;4973165;28;20054;-75
2021/04/07 12:23:08;;;;;;;3.88;2.40;;;8.10;90.40;;;;;;4987997;28;20503;-74
2021/04/07 12:25:34;;;;;;;4.53;2.20;;;8.00;90.20;;;;;;4988372;28;20051;-75
2021/04/07 12:27:59;;;;;;;3.40;2.42;;;8.10;90.50;;;;;;4972744;28;20023;-75
2021/04/07 12:30:25;;;;;;;9.48;2.78;;;8.30;90.50;;;;;;4974707;28;20027;-76
2021/04/07 12:32:52;;;;;;;11.90;3.22;;;8.20;90.60;;;;;;4973094;28;20140;-74
2021/04/07 12:35:18;;;;;;;5.20;2.50;;;8.40;90.70;;;;;;4988291;28;20035;-74
2021/04/07 12:37:44;;;;;;;9.40;3.17;;;8.60;90.20;;;;;;4987909;28;20031;-75
2021/04/07 12:40:13;;;;;;;5.47;3.45;;;8.40;89.50;;;;;;4972570;28;20031;-74
2021/04/07 12:42:39;;;;;;;4.85;2.78;;;8.60;89.50;;;;;;4987919;28;20129;-75
2021/04/07 12:45:07;;;;;;;7.28;2.85;;;8.50;89.30;;;;;;4974446;28;20105;-74
2021/04/07 12:47:33;;;;;;;11.52;3.25;;;8.40;89.50;;;;;;4972719;28;20473;-74
2021/04/07 12:50:00;;;;;;;6.45;2.70;;;8.30;89.40;;;;;;4987871;28;20394;-75
2021/04/07 12:52:25;;;;;;;5.25;2.65;;;8.40;89.70;;;;;;4987706;28;20648;-75
2021/04/07 12:54:51;;;;;;;6.20;2.75;;;8.30;89.90;;;;;;4972079;28;22802;-74
2021/04/07 12:57:16;;;;;;;8.13;2.97;;;8.30;90.00;;;;;;4989317;28;20330;-74
2021/04/07 12:59:42;;;;;;;10.18;3.50;;;8.40;90.20;;;;;;4972772;28;20039;-74
2021/04/07 13:02:08;;;;;;;7.47;3.45;;;8.40;90.30;;;;;;4972377;28;20047;-75
2021/04/07 13:04:33;;;;;;;7.85;3.00;;;8.60;90.20;;;;;;4972650;28;20468;-74
2021/04/07 13:06:59;;;;;;;11.95;3.30;;;8.70;90.30;;;;;;4972403;28;20539;-75